sensor_id;sensor_type;location;lat;lon;timestamp;P1;durP1;ratioP1;P2;durP2;ratioP2
67140;SDS011;54058;52.010;5.546;2022-09-01T00:00:43;2.20;;;1.10;;
67140;SDS011;54058;52.010;5.546;2022-09-01T00:03:16;5.90;;;1.20;;
67140;SDS011;54058;52.010;5.546;2022-09-01T00:05:44;2.33;;;1.23;;
67140;SDS011;54058;52.010;5.546;2022-09-01T00:08:10;1.20;;;1.10;;
67140;SDS011;54058;52.010;5.546;2022-09-01T00:10:37;2.78;;;1.30;;
67140;SDS011;54058;52.010;5.546;2022-09-01T00:13:03;4.22;;;1.45;;
67140;SDS011;54058;52.010;5.546;2022-09-01T00:15:31;3.97;;;1.60;;
67140;SDS011;54058;52.010;5.546;2022-09-01T00:18:00;4.45;;;1.45;;
67140;SDS011;54058;52.010;5.546;2022-09-01T00:20:26;3.63;;;1.40;;
67140;SDS011;54058;52.010;5.546;2022-09-01T00:22:53;2.25;;;1.30;;
67140;SDS011;54058;52.010;5.546;2022-09-01T00:25:19;2.72;;;1.23;;
67140;SDS011;54058;52.010;5.546;2022-09-01T00:27:46;2.05;;;1.33;;
67140;SDS011;54058;52.010;5.546;2022-09-01T00:32:38;4.73;;;1.17;;
67140;SDS011;54058;52.010;5.546;2022-09-01T00:35:04;10.35;;;1.50;;
67140;SDS011;54058;52.010;5.546;2022-09-01T00:37:30;2.67;;;1.70;;
67140;SDS011;54058;52.010;5.546;2022-09-01T00:39:56;7.63;;;1.52;;
67140;SDS011;54058;52.010;5.546;2022-09-01T00:42:22;2.17;;;1.17;;
67140;SDS011;54058;52.010;5.546;2022-09-01T00:44:47;2.30;;;1.25;;
67140;SDS011;54058;52.010;5.546;2022-09-01T00:47:13;2.97;;;1.42;;
67140;SDS011;54058;52.010;5.546;2022-09-01T00:49:40;3.00;;;1.30;;
67140;SDS011;54058;52.010;5.546;2022-09-01T00:52:16;2.40;;;1.48;;
67140;SDS011;54058;52.010;5.546;2022-09-01T00:54:50;3.38;;;1.40;;
67140;SDS011;54058;52.010;5.546;2022-09-01T00:57:19;7.20;;;1.70;;
67140;SDS011;54058;52.010;5.546;2022-09-01T00:59:48;1.85;;;1.20;;
67140;SDS011;54058;52.010;5.546;2022-09-01T01:02:18;3.10;;;1.40;;
67140;SDS011;54058;52.010;5.546;2022-09-01T01:04:44;2.53;;;1.33;;
67140;SDS011;54058;52.010;5.546;2022-09-01T01:07:10;2.50;;;1.20;;
67140;SDS011;54058;52.010;5.546;2022-09-01T01:09:37;3.08;;;1.50;;
67140;SDS011;54058;52.010;5.546;2022-09-01T01:12:06;2.58;;;1.33;;
67140;SDS011;54058;52.010;5.546;2022-09-01T01:14:35;2.10;;;1.45;;
67140;SDS011;54058;52.010;5.546;2022-09-01T01:17:03;6.43;;;1.45;;
67140;SDS011;54058;52.010;5.546;2022-09-01T01:22:26;1.73;;;1.50;;
67140;SDS011;54058;52.010;5.546;2022-09-01T01:25:26;2.80;;;1.38;;
67140;SDS011;54058;52.010;5.546;2022-09-01T01:30:33;5.60;;;1.40;;
67140;SDS011;54058;52.010;5.546;2022-09-01T01:33:00;2.72;;;1.15;;
67140;SDS011;54058;52.010;5.546;2022-09-01T01:37:54;3.50;;;1.27;;
67140;SDS011;54058;52.010;5.546;2022-09-01T01:40:20;4.88;;;1.08;;
67140;SDS011;54058;52.010;5.546;2022-09-01T01:42:47;2.85;;;1.42;;
67140;SDS011;54058;52.010;5.546;2022-09-01T01:45:18;3.08;;;1.50;;
67140;SDS011;54058;52.010;5.546;2022-09-01T01:47:47;7.85;;;1.40;;
67140;SDS011;54058;52.010;5.546;2022-09-01T01:50:24;3.10;;;1.38;;
67140;SDS011;54058;52.010;5.546;2022-09-01T01:52:52;3.03;;;1.50;;
67140;SDS011;54058;52.010;5.546;2022-09-01T01:55:18;8.15;;;1.45;;
67140;SDS011;54058;52.010;5.546;2022-09-01T01:57:46;2.38;;;1.30;;
67140;SDS011;54058;52.010;5.546;2022-09-01T02:00:19;8.13;;;1.42;;
67140;SDS011;54058;52.010;5.546;2022-09-01T02:02:49;3.28;;;1.70;;
67140;SDS011;54058;52.010;5.546;2022-09-01T02:05:22;2.38;;;1.33;;
67140;SDS011;54058;52.010;5.546;2022-09-01T02:07:53;2.63;;;1.05;;
67140;SDS011;54058;52.010;5.546;2022-09-01T02:10:24;3.20;;;1.38;;
67140;SDS011;54058;52.010;5.546;2022-09-01T02:12:52;2.63;;;1.23;;
67140;SDS011;54058;52.010;5.546;2022-09-01T02:15:19;1.48;;;1.30;;
67140;SDS011;54058;52.010;5.546;2022-09-01T02:17:45;4.97;;;1.27;;
67140;SDS011;54058;52.010;5.546;2022-09-01T02:20:11;5.38;;;1.23;;
67140;SDS011;54058;52.010;5.546;2022-09-01T02:22:40;6.68;;;1.40;;
67140;SDS011;54058;52.010;5.546;2022-09-01T02:25:08;3.30;;;1.05;;
67140;SDS011;54058;52.010;5.546;2022-09-01T02:27:35;3.85;;;1.38;;
67140;SDS011;54058;52.010;5.546;2022-09-01T02:30:04;3.78;;;1.30;;
67140;SDS011;54058;52.010;5.546;2022-09-01T02:32:34;3.33;;;1.58;;
67140;SDS011;54058;52.010;5.546;2022-09-01T02:35:01;8.07;;;1.35;;
67140;SDS011;54058;52.010;5.546;2022-09-01T02:37:31;6.68;;;1.40;;
67140;SDS011;54058;52.010;5.546;2022-09-01T02:39:56;5.00;;;1.40;;
67140;SDS011;54058;52.010;5.546;2022-09-01T02:42:22;3.95;;;1.45;;
67140;SDS011;54058;52.010;5.546;2022-09-01T02:44:51;4.55;;;1.73;;
67140;SDS011;54058;52.010;5.546;2022-09-01T02:47:21;4.55;;;1.45;;
67140;SDS011;54058;52.010;5.546;2022-09-01T02:49:47;2.63;;;1.27;;
67140;SDS011;54058;52.010;5.546;2022-09-01T02:52:16;1.50;;;1.30;;
67140;SDS011;54058;52.010;5.546;2022-09-01T02:54:45;2.05;;;1.10;;
67140;SDS011;54058;52.010;5.546;2022-09-01T02:57:12;1.83;;;1.40;;
67140;SDS011;54058;52.010;5.546;2022-09-01T02:59:40;4.13;;;1.35;;
67140;SDS011;54058;52.010;5.546;2022-09-01T03:02:07;2.40;;;1.27;;
67140;SDS011;54058;52.010;5.546;2022-09-01T03:04:34;6.45;;;1.20;;
67140;SDS011;54058;52.010;5.546;2022-09-01T03:07:01;3.15;;;1.55;;
67140;SDS011;54058;52.010;5.546;2022-09-01T03:09:28;3.15;;;1.38;;
67140;SDS011;54058;52.010;5.546;2022-09-01T03:11:54;5.22;;;1.42;;
67140;SDS011;54058;52.010;5.546;2022-09-01T03:14:20;2.75;;;1.40;;
67140;SDS011;54058;52.010;5.546;2022-09-01T03:16:48;1.92;;;1.02;;
67140;SDS011;54058;52.010;5.546;2022-09-01T03:19:14;2.15;;;1.15;;
67140;SDS011;54058;52.010;5.546;2022-09-01T03:21:42;3.03;;;1.38;;
67140;SDS011;54058;52.010;5.546;2022-09-01T03:24:09;2.72;;;1.10;;
67140;SDS011;54058;52.010;5.546;2022-09-01T03:26:38;3.03;;;1.55;;
67140;SDS011;54058;52.010;5.546;2022-09-01T03:29:04;2.33;;;1.30;;
67140;SDS011;54058;52.010;5.546;2022-09-01T03:31:30;2.22;;;1.40;;
67140;SDS011;54058;52.010;5.546;2022-09-01T03:33:56;7.10;;;1.20;;
67140;SDS011;54058;52.010;5.546;2022-09-01T03:36:23;2.72;;;1.20;;
67140;SDS011;54058;52.010;5.546;2022-09-01T03:38:50;1.38;;;1.27;;
67140;SDS011;54058;52.010;5.546;2022-09-01T03:41:18;2.65;;;1.00;;
67140;SDS011;54058;52.010;5.546;2022-09-01T03:43:46;3.75;;;1.35;;
67140;SDS011;54058;52.010;5.546;2022-09-01T03:46:12;3.25;;;1.40;;
67140;SDS011;54058;52.010;5.546;2022-09-01T03:48:46;7.50;;;1.70;;
67140;SDS011;54058;52.010;5.546;2022-09-01T03:51:16;3.03;;;1.33;;
67140;SDS011;54058;52.010;5.546;2022-09-01T03:53:43;3.30;;;1.02;;
67140;SDS011;54058;52.010;5.546;2022-09-01T03:56:10;1.77;;;1.25;;
67140;SDS011;54058;52.010;5.546;2022-09-01T03:58:37;3.70;;;1.23;;
67140;SDS011;54058;52.010;5.546;2022-09-01T04:01:06;5.22;;;1.35;;
67140;SDS011;54058;52.010;5.546;2022-09-01T04:03:33;6.70;;;1.50;;
67140;SDS011;54058;52.010;5.546;2022-09-01T04:05:59;9.48;;;1.40;;
67140;SDS011;54058;52.010;5.546;2022-09-01T04:08:25;6.93;;;1.17;;
67140;SDS011;54058;52.010;5.546;2022-09-01T04:10:55;2.33;;;1.33;;
67140;SDS011;54058;52.010;5.546;2022-09-01T04:13:26;2.92;;;1.42;;
67140;SDS011;54058;52.010;5.546;2022-09-01T04:15:55;1.52;;;1.20;;
67140;SDS011;54058;52.010;5.546;2022-09-01T04:18:22;5.63;;;1.40;;
67140;SDS011;54058;52.010;5.546;2022-09-01T04:20:52;2.23;;;1.13;;
67140;SDS011;54058;52.010;5.546;2022-09-01T04:25:55;4.32;;;1.40;;
67140;SDS011;54058;52.010;5.546;2022-09-01T04:28:24;4.78;;;1.23;;
67140;SDS011;54058;52.010;5.546;2022-09-01T04:30:55;1.73;;;1.15;;
67140;SDS011;54058;52.010;5.546;2022-09-01T04:33:23;2.17;;;1.30;;
67140;SDS011;54058;52.010;5.546;2022-09-01T04:35:51;3.58;;;1.23;;
67140;SDS011;54058;52.010;5.546;2022-09-01T04:38:21;3.55;;;1.20;;
67140;SDS011;54058;52.010;5.546;2022-09-01T04:40:48;4.50;;;1.10;;
67140;SDS011;54058;52.010;5.546;2022-09-01T04:43:15;2.95;;;1.40;;
67140;SDS011;54058;52.010;5.546;2022-09-01T04:45:41;2.93;;;1.20;;
67140;SDS011;54058;52.010;5.546;2022-09-01T04:48:07;5.28;;;1.75;;
67140;SDS011;54058;52.010;5.546;2022-09-01T04:50:33;7.03;;;1.70;;
67140;SDS011;54058;52.010;5.546;2022-09-01T04:53:01;11.10;;;3.08;;
67140;SDS011;54058;52.010;5.546;2022-09-01T04:55:29;7.95;;;2.92;;
67140;SDS011;54058;52.010;5.546;2022-09-01T04:57:57;6.30;;;2.45;;
67140;SDS011;54058;52.010;5.546;2022-09-01T05:00:25;6.40;;;3.15;;
67140;SDS011;54058;52.010;5.546;2022-09-01T05:02:58;6.72;;;2.90;;
67140;SDS011;54058;52.010;5.546;2022-09-01T05:05:34;5.95;;;3.10;;
67140;SDS011;54058;52.010;5.546;2022-09-01T05:08:10;11.60;;;3.42;;
67140;SDS011;54058;52.010;5.546;2022-09-01T05:10:38;8.40;;;3.08;;
67140;SDS011;54058;52.010;5.546;2022-09-01T05:13:09;4.75;;;2.70;;
67140;SDS011;54058;52.010;5.546;2022-09-01T05:15:37;7.85;;;2.28;;
67140;SDS011;54058;52.010;5.546;2022-09-01T05:18:04;3.88;;;2.35;;
67140;SDS011;54058;52.010;5.546;2022-09-01T05:20:38;10.68;;;2.53;;
67140;SDS011;54058;52.010;5.546;2022-09-01T05:23:05;5.50;;;2.90;;
67140;SDS011;54058;52.010;5.546;2022-09-01T05:25:36;4.13;;;1.60;;
67140;SDS011;54058;52.010;5.546;2022-09-01T05:28:07;5.13;;;1.85;;
67140;SDS011;54058;52.010;5.546;2022-09-01T05:30:37;2.53;;;2.13;;
67140;SDS011;54058;52.010;5.546;2022-09-01T05:33:05;4.75;;;2.38;;
67140;SDS011;54058;52.010;5.546;2022-09-01T05:35:35;6.97;;;3.30;;
67140;SDS011;54058;52.010;5.546;2022-09-01T05:38:04;4.55;;;2.20;;
67140;SDS011;54058;52.010;5.546;2022-09-01T05:40:34;6.80;;;1.80;;
67140;SDS011;54058;52.010;5.546;2022-09-01T05:43:05;4.00;;;1.40;;
67140;SDS011;54058;52.010;5.546;2022-09-01T05:45:35;2.40;;;1.25;;
67140;SDS011;54058;52.010;5.546;2022-09-01T05:48:01;3.80;;;1.20;;
67140;SDS011;54058;52.010;5.546;2022-09-01T05:50:27;6.55;;;1.60;;
67140;SDS011;54058;52.010;5.546;2022-09-01T05:52:53;2.90;;;1.70;;
67140;SDS011;54058;52.010;5.546;2022-09-01T05:55:19;6.03;;;1.58;;
67140;SDS011;54058;52.010;5.546;2022-09-01T05:57:46;4.63;;;1.45;;
67140;SDS011;54058;52.010;5.546;2022-09-01T06:00:13;3.50;;;1.50;;
67140;SDS011;54058;52.010;5.546;2022-09-01T06:02:41;1.50;;;1.25;;
67140;SDS011;54058;52.010;5.546;2022-09-01T06:05:07;1.85;;;1.30;;
67140;SDS011;54058;52.010;5.546;2022-09-01T06:07:33;1.80;;;1.40;;
67140;SDS011;54058;52.010;5.546;2022-09-01T06:10:00;9.68;;;1.40;;
67140;SDS011;54058;52.010;5.546;2022-09-01T06:12:26;2.17;;;1.30;;
67140;SDS011;54058;52.010;5.546;2022-09-01T06:14:53;3.53;;;1.50;;
67140;SDS011;54058;52.010;5.546;2022-09-01T06:17:20;4.07;;;1.33;;
67140;SDS011;54058;52.010;5.546;2022-09-01T06:19:49;4.63;;;1.40;;
67140;SDS011;54058;52.010;5.546;2022-09-01T06:22:16;2.63;;;1.58;;
67140;SDS011;54058;52.010;5.546;2022-09-01T06:24:44;4.22;;;1.20;;
67140;SDS011;54058;52.010;5.546;2022-09-01T06:27:11;14.15;;;1.40;;
67140;SDS011;54058;52.010;5.546;2022-09-01T06:29:39;2.67;;;1.30;;
67140;SDS011;54058;52.010;5.546;2022-09-01T06:32:06;5.85;;;1.40;;
67140;SDS011;54058;52.010;5.546;2022-09-01T06:34:34;2.40;;;1.45;;
67140;SDS011;54058;52.010;5.546;2022-09-01T06:37:06;7.22;;;1.42;;
67140;SDS011;54058;52.010;5.546;2022-09-01T06:39:32;4.93;;;1.40;;
67140;SDS011;54058;52.010;5.546;2022-09-01T06:41:58;6.05;;;1.30;;
67140;SDS011;54058;52.010;5.546;2022-09-01T06:44:26;2.15;;;1.20;;
67140;SDS011;54058;52.010;5.546;2022-09-01T06:46:56;7.13;;;1.25;;
67140;SDS011;54058;52.010;5.546;2022-09-01T06:49:23;8.52;;;1.30;;
67140;SDS011;54058;52.010;5.546;2022-09-01T06:52:00;1.85;;;1.30;;
67140;SDS011;54058;52.010;5.546;2022-09-01T06:54:27;5.45;;;1.27;;
67140;SDS011;54058;52.010;5.546;2022-09-01T06:56:54;8.70;;;1.25;;
67140;SDS011;54058;52.010;5.546;2022-09-01T06:59:21;5.47;;;1.17;;
67140;SDS011;54058;52.010;5.546;2022-09-01T07:01:51;2.63;;;1.25;;
67140;SDS011;54058;52.010;5.546;2022-09-01T07:04:18;2.85;;;1.10;;
67140;SDS011;54058;52.010;5.546;2022-09-01T07:06:45;3.28;;;1.05;;
67140;SDS011;54058;52.010;5.546;2022-09-01T07:09:14;7.68;;;1.15;;
67140;SDS011;54058;52.010;5.546;2022-09-01T07:11:39;1.70;;;0.85;;
67140;SDS011;54058;52.010;5.546;2022-09-01T07:14:05;2.10;;;1.00;;
67140;SDS011;54058;52.010;5.546;2022-09-01T07:16:33;3.45;;;0.93;;
67140;SDS011;54058;52.010;5.546;2022-09-01T07:19:03;4.43;;;0.90;;
67140;SDS011;54058;52.010;5.546;2022-09-01T07:21:30;4.97;;;1.33;;
67140;SDS011;54058;52.010;5.546;2022-09-01T07:23:56;1.80;;;1.13;;
67140;SDS011;54058;52.010;5.546;2022-09-01T07:26:23;6.28;;;1.02;;
67140;SDS011;54058;52.010;5.546;2022-09-01T07:28:52;7.57;;;1.38;;
67140;SDS011;54058;52.010;5.546;2022-09-01T07:31:23;2.67;;;1.00;;
67140;SDS011;54058;52.010;5.546;2022-09-01T07:33:55;6.43;;;1.03;;
67140;SDS011;54058;52.010;5.546;2022-09-01T07:36:23;2.63;;;1.05;;
67140;SDS011;54058;52.010;5.546;2022-09-01T07:38:49;7.45;;;1.17;;
67140;SDS011;54058;52.010;5.546;2022-09-01T07:41:21;2.95;;;0.88;;
67140;SDS011;54058;52.010;5.546;2022-09-01T07:43:49;4.97;;;1.10;;
67140;SDS011;54058;52.010;5.546;2022-09-01T07:46:17;3.65;;;1.30;;
67140;SDS011;54058;52.010;5.546;2022-09-01T07:48:44;10.85;;;1.48;;
67140;SDS011;54058;52.010;5.546;2022-09-01T07:51:13;3.67;;;1.30;;
67140;SDS011;54058;52.010;5.546;2022-09-01T07:53:42;8.00;;;1.65;;
67140;SDS011;54058;52.010;5.546;2022-09-01T07:56:09;5.65;;;1.02;;
67140;SDS011;54058;52.010;5.546;2022-09-01T07:58:37;5.00;;;1.20;;
67140;SDS011;54058;52.010;5.546;2022-09-01T08:01:08;4.47;;;1.10;;
67140;SDS011;54058;52.010;5.546;2022-09-01T08:03:35;3.67;;;1.00;;
67140;SDS011;54058;52.010;5.546;2022-09-01T08:06:02;2.30;;;0.73;;
67140;SDS011;54058;52.010;5.546;2022-09-01T08:08:30;7.35;;;1.30;;
67140;SDS011;54058;52.010;5.546;2022-09-01T08:13:23;2.73;;;0.90;;
67140;SDS011;54058;52.010;5.546;2022-09-01T08:15:48;5.13;;;1.30;;
67140;SDS011;54058;52.010;5.546;2022-09-01T08:18:14;2.47;;;1.23;;
67140;SDS011;54058;52.010;5.546;2022-09-01T08:20:40;3.60;;;1.20;;
67140;SDS011;54058;52.010;5.546;2022-09-01T08:23:10;2.17;;;1.00;;
67140;SDS011;54058;52.010;5.546;2022-09-01T08:25:37;5.57;;;0.90;;
67140;SDS011;54058;52.010;5.546;2022-09-01T08:28:03;5.38;;;0.90;;
67140;SDS011;54058;52.010;5.546;2022-09-01T08:30:30;5.60;;;1.03;;
67140;SDS011;54058;52.010;5.546;2022-09-01T08:32:56;4.00;;;1.27;;
67140;SDS011;54058;52.010;5.546;2022-09-01T08:35:22;6.80;;;0.90;;
67140;SDS011;54058;52.010;5.546;2022-09-01T08:37:48;5.67;;;1.00;;
67140;SDS011;54058;52.010;5.546;2022-09-01T08:40:15;1.10;;;0.90;;
67140;SDS011;54058;52.010;5.546;2022-09-01T08:42:47;5.78;;;0.98;;
67140;SDS011;54058;52.010;5.546;2022-09-01T08:45:30;5.15;;;1.13;;
67140;SDS011;54058;52.010;5.546;2022-09-01T08:50:41;2.55;;;1.00;;
67140;SDS011;54058;52.010;5.546;2022-09-01T08:53:32;4.72;;;1.08;;
67140;SDS011;54058;52.010;5.546;2022-09-01T08:55:58;1.85;;;1.17;;
67140;SDS011;54058;52.010;5.546;2022-09-01T08:58:24;2.50;;;1.08;;
67140;SDS011;54058;52.010;5.546;2022-09-01T09:00:55;3.72;;;1.50;;
67140;SDS011;54058;52.010;5.546;2022-09-01T09:06:34;5.57;;;0.80;;
67140;SDS011;54058;52.010;5.546;2022-09-01T09:09:09;8.25;;;1.33;;
67140;SDS011;54058;52.010;5.546;2022-09-01T09:16:45;6.30;;;1.30;;
67140;SDS011;54058;52.010;5.546;2022-09-01T09:22:01;2.00;;;0.65;;
67140;SDS011;54058;52.010;5.546;2022-09-01T09:24:35;2.17;;;0.85;;
67140;SDS011;54058;52.010;5.546;2022-09-01T09:27:29;5.10;;;0.75;;
67140;SDS011;54058;52.010;5.546;2022-09-01T09:30:13;4.30;;;0.82;;
67140;SDS011;54058;52.010;5.546;2022-09-01T09:32:50;4.53;;;0.90;;
67140;SDS011;54058;52.010;5.546;2022-09-01T09:43:21;5.00;;;0.82;;
67140;SDS011;54058;52.010;5.546;2022-09-01T09:45:47;2.67;;;0.65;;
67140;SDS011;54058;52.010;5.546;2022-09-01T09:48:26;3.17;;;0.73;;
67140;SDS011;54058;52.010;5.546;2022-09-01T09:50:55;2.97;;;0.70;;
67140;SDS011;54058;52.010;5.546;2022-09-01T09:53:38;1.35;;;0.82;;
67140;SDS011;54058;52.010;5.546;2022-09-01T09:58:44;2.25;;;0.70;;
67140;SDS011;54058;52.010;5.546;2022-09-01T10:01:13;3.90;;;0.65;;
67140;SDS011;54058;52.010;5.546;2022-09-01T10:03:48;0.80;;;0.70;;
67140;SDS011;54058;52.010;5.546;2022-09-01T10:06:35;1.88;;;0.70;;
67140;SDS011;54058;52.010;5.546;2022-09-01T10:11:55;2.40;;;0.80;;
67140;SDS011;54058;52.010;5.546;2022-09-01T10:14:30;1.42;;;0.77;;
67140;SDS011;54058;52.010;5.546;2022-09-01T10:17:03;2.15;;;0.70;;
67140;SDS011;54058;52.010;5.546;2022-09-01T10:19:37;2.47;;;0.80;;
67140;SDS011;54058;52.010;5.546;2022-09-01T10:22:05;0.85;;;0.70;;
67140;SDS011;54058;52.010;5.546;2022-09-01T10:24:34;2.63;;;0.70;;
67140;SDS011;54058;52.010;5.546;2022-09-01T10:27:14;2.30;;;0.88;;
67140;SDS011;54058;52.010;5.546;2022-09-01T10:29:52;5.03;;;0.82;;
67140;SDS011;54058;52.010;5.546;2022-09-01T10:32:41;3.00;;;0.82;;
67140;SDS011;54058;52.010;5.546;2022-09-01T10:35:13;0.77;;;0.65;;
67140;SDS011;54058;52.010;5.546;2022-09-01T10:37:48;4.07;;;0.90;;
67140;SDS011;54058;52.010;5.546;2022-09-01T10:45:59;2.95;;;0.75;;
67140;SDS011;54058;52.010;5.546;2022-09-01T10:48:32;1.13;;;0.68;;
67140;SDS011;54058;52.010;5.546;2022-09-01T10:53:47;7.15;;;1.00;;
67140;SDS011;54058;52.010;5.546;2022-09-01T10:58:59;0.82;;;0.60;;
67140;SDS011;54058;52.010;5.546;2022-09-01T11:04:08;1.85;;;0.70;;
67140;SDS011;54058;52.010;5.546;2022-09-01T11:09:15;2.17;;;0.88;;
67140;SDS011;54058;52.010;5.546;2022-09-01T11:14:25;6.72;;;0.70;;
67140;SDS011;54058;52.010;5.546;2022-09-01T11:19:40;1.80;;;0.95;;
67140;SDS011;54058;52.010;5.546;2022-09-01T11:24:48;6.65;;;0.82;;
67140;SDS011;54058;52.010;5.546;2022-09-01T11:35:42;1.38;;;0.80;;
67140;SDS011;54058;52.010;5.546;2022-09-01T11:38:09;2.25;;;0.80;;
67140;SDS011;54058;52.010;5.546;2022-09-01T11:40:40;1.52;;;0.60;;
67140;SDS011;54058;52.010;5.546;2022-09-01T11:43:08;2.65;;;0.80;;
67140;SDS011;54058;52.010;5.546;2022-09-01T11:45:43;1.02;;;0.80;;
67140;SDS011;54058;52.010;5.546;2022-09-01T11:48:22;3.17;;;0.80;;
67140;SDS011;54058;52.010;5.546;2022-09-01T11:50:55;2.97;;;0.85;;
67140;SDS011;54058;52.010;5.546;2022-09-01T11:53:24;0.93;;;0.70;;
67140;SDS011;54058;52.010;5.546;2022-09-01T12:00:56;4.97;;;0.70;;
67140;SDS011;54058;52.010;5.546;2022-09-01T12:03:35;1.50;;;0.90;;
67140;SDS011;54058;52.010;5.546;2022-09-01T12:06:02;5.37;;;0.80;;
67140;SDS011;54058;52.010;5.546;2022-09-01T12:08:34;5.07;;;0.88;;
67140;SDS011;54058;52.010;5.546;2022-09-01T12:13:33;1.60;;;0.70;;
67140;SDS011;54058;52.010;5.546;2022-09-01T12:16:01;3.58;;;1.02;;
67140;SDS011;54058;52.010;5.546;2022-09-01T12:18:30;3.80;;;0.90;;
67140;SDS011;54058;52.010;5.546;2022-09-01T12:21:02;1.92;;;0.77;;
67140;SDS011;54058;52.010;5.546;2022-09-01T12:23:33;5.43;;;0.93;;
67140;SDS011;54058;52.010;5.546;2022-09-01T12:26:02;1.40;;;0.60;;
67140;SDS011;54058;52.010;5.546;2022-09-01T12:28:32;0.63;;;0.50;;
67140;SDS011;54058;52.010;5.546;2022-09-01T12:30:59;1.73;;;0.70;;
67140;SDS011;54058;52.010;5.546;2022-09-01T12:33:29;3.53;;;0.90;;
67140;SDS011;54058;52.010;5.546;2022-09-01T12:41:42;3.60;;;0.70;;
67140;SDS011;54058;52.010;5.546;2022-09-01T12:55:19;13.30;;;1.23;;
67140;SDS011;54058;52.010;5.546;2022-09-01T12:57:47;1.58;;;0.82;;
67140;SDS011;54058;52.010;5.546;2022-09-01T13:00:20;4.85;;;0.88;;
67140;SDS011;54058;52.010;5.546;2022-09-01T13:05:35;1.08;;;0.70;;
67140;SDS011;54058;52.010;5.546;2022-09-01T13:08:06;3.80;;;0.70;;
67140;SDS011;54058;52.010;5.546;2022-09-01T13:10:35;4.82;;;0.70;;
67140;SDS011;54058;52.010;5.546;2022-09-01T13:13:09;1.92;;;0.80;;
67140;SDS011;54058;52.010;5.546;2022-09-01T13:15:37;2.55;;;0.70;;
67140;SDS011;54058;52.010;5.546;2022-09-01T13:18:06;2.42;;;0.80;;
67140;SDS011;54058;52.010;5.546;2022-09-01T13:20:32;5.40;;;0.90;;
67140;SDS011;54058;52.010;5.546;2022-09-01T13:22:59;4.55;;;0.80;;
67140;SDS011;54058;52.010;5.546;2022-09-01T13:25:25;3.10;;;0.93;;
67140;SDS011;54058;52.010;5.546;2022-09-01T13:27:51;7.77;;;1.00;;
67140;SDS011;54058;52.010;5.546;2022-09-01T13:30:19;4.18;;;0.90;;
67140;SDS011;54058;52.010;5.546;2022-09-01T13:32:47;6.10;;;0.98;;
67140;SDS011;54058;52.010;5.546;2022-09-01T13:35:15;2.80;;;0.95;;
67140;SDS011;54058;52.010;5.546;2022-09-01T13:37:46;5.00;;;1.42;;
67140;SDS011;54058;52.010;5.546;2022-09-01T13:40:12;3.33;;;0.80;;
67140;SDS011;54058;52.010;5.546;2022-09-01T13:42:42;3.80;;;1.05;;
67140;SDS011;54058;52.010;5.546;2022-09-01T13:45:12;7.82;;;0.98;;
67140;SDS011;54058;52.010;5.546;2022-09-01T13:47:39;6.88;;;0.98;;
67140;SDS011;54058;52.010;5.546;2022-09-01T13:50:05;2.45;;;0.80;;
67140;SDS011;54058;52.010;5.546;2022-09-01T13:52:31;2.45;;;1.13;;
67140;SDS011;54058;52.010;5.546;2022-09-01T13:54:57;2.70;;;0.80;;
67140;SDS011;54058;52.010;5.546;2022-09-01T13:57:23;6.97;;;0.90;;
67140;SDS011;54058;52.010;5.546;2022-09-01T13:59:49;1.83;;;0.88;;
67140;SDS011;54058;52.010;5.546;2022-09-01T14:02:15;4.75;;;0.95;;
67140;SDS011;54058;52.010;5.546;2022-09-01T14:04:40;1.58;;;0.80;;
67140;SDS011;54058;52.010;5.546;2022-09-01T14:07:06;3.70;;;1.10;;
67140;SDS011;54058;52.010;5.546;2022-09-01T14:09:32;3.80;;;0.80;;
67140;SDS011;54058;52.010;5.546;2022-09-01T14:11:58;0.93;;;0.70;;
67140;SDS011;54058;52.010;5.546;2022-09-01T14:14:23;6.45;;;0.98;;
67140;SDS011;54058;52.010;5.546;2022-09-01T14:16:49;6.30;;;0.90;;
67140;SDS011;54058;52.010;5.546;2022-09-01T14:19:15;2.10;;;0.77;;
67140;SDS011;54058;52.010;5.546;2022-09-01T14:21:41;2.30;;;0.82;;
67140;SDS011;54058;52.010;5.546;2022-09-01T14:24:07;1.88;;;0.70;;
67140;SDS011;54058;52.010;5.546;2022-09-01T14:26:33;7.53;;;1.17;;
67140;SDS011;54058;52.010;5.546;2022-09-01T14:28:58;1.10;;;0.82;;
67140;SDS011;54058;52.010;5.546;2022-09-01T14:31:26;2.78;;;0.95;;
67140;SDS011;54058;52.010;5.546;2022-09-01T14:33:53;4.70;;;1.27;;
67140;SDS011;54058;52.010;5.546;2022-09-01T14:36:20;4.63;;;1.30;;
67140;SDS011;54058;52.010;5.546;2022-09-01T14:38:48;3.45;;;1.13;;
67140;SDS011;54058;52.010;5.546;2022-09-01T14:41:15;3.20;;;0.70;;
67140;SDS011;54058;52.010;5.546;2022-09-01T14:43:45;3.40;;;0.73;;
67140;SDS011;54058;52.010;5.546;2022-09-01T14:46:11;0.68;;;0.68;;
67140;SDS011;54058;52.010;5.546;2022-09-01T14:48:38;6.90;;;0.80;;
67140;SDS011;54058;52.010;5.546;2022-09-01T14:51:05;2.58;;;0.90;;
67140;SDS011;54058;52.010;5.546;2022-09-01T14:53:32;2.28;;;0.90;;
67140;SDS011;54058;52.010;5.546;2022-09-01T14:55:58;1.33;;;0.93;;
67140;SDS011;54058;52.010;5.546;2022-09-01T14:58:26;5.45;;;0.98;;
67140;SDS011;54058;52.010;5.546;2022-09-01T15:00:53;7.25;;;0.90;;
67140;SDS011;54058;52.010;5.546;2022-09-01T15:03:23;2.15;;;0.80;;
67140;SDS011;54058;52.010;5.546;2022-09-01T15:05:52;4.25;;;0.90;;
67140;SDS011;54058;52.010;5.546;2022-09-01T15:08:18;5.80;;;1.00;;
67140;SDS011;54058;52.010;5.546;2022-09-01T15:10:45;1.77;;;0.80;;
67140;SDS011;54058;52.010;5.546;2022-09-01T15:13:11;2.17;;;0.97;;
67140;SDS011;54058;52.010;5.546;2022-09-01T15:15:37;10.15;;;1.05;;
67140;SDS011;54058;52.010;5.546;2022-09-01T15:18:03;2.58;;;0.98;;
67140;SDS011;54058;52.010;5.546;2022-09-01T15:20:29;3.92;;;0.93;;
67140;SDS011;54058;52.010;5.546;2022-09-01T15:23:20;1.70;;;0.82;;
67140;SDS011;54058;52.010;5.546;2022-09-01T15:25:49;7.07;;;0.80;;
67140;SDS011;54058;52.010;5.546;2022-09-01T15:28:16;10.10;;;0.93;;
67140;SDS011;54058;52.010;5.546;2022-09-01T15:30:42;3.03;;;0.80;;
67140;SDS011;54058;52.010;5.546;2022-09-01T15:33:09;4.78;;;0.70;;
67140;SDS011;54058;52.010;5.546;2022-09-01T15:35:36;1.35;;;0.80;;
67140;SDS011;54058;52.010;5.546;2022-09-01T15:38:02;2.97;;;0.93;;
67140;SDS011;54058;52.010;5.546;2022-09-01T15:40:29;1.20;;;0.80;;
67140;SDS011;54058;52.010;5.546;2022-09-01T15:42:54;1.27;;;0.90;;
67140;SDS011;54058;52.010;5.546;2022-09-01T15:45:22;5.28;;;0.85;;
67140;SDS011;54058;52.010;5.546;2022-09-01T15:47:49;1.45;;;0.80;;
67140;SDS011;54058;52.010;5.546;2022-09-01T15:50:17;6.80;;;1.08;;
67140;SDS011;54058;52.010;5.546;2022-09-01T15:52:46;10.13;;;1.10;;
67140;SDS011;54058;52.010;5.546;2022-09-01T15:55:18;6.50;;;0.98;;
67140;SDS011;54058;52.010;5.546;2022-09-01T15:57:45;3.28;;;1.00;;
67140;SDS011;54058;52.010;5.546;2022-09-01T16:00:11;1.97;;;0.80;;
67140;SDS011;54058;52.010;5.546;2022-09-01T16:02:38;8.07;;;1.08;;
67140;SDS011;54058;52.010;5.546;2022-09-01T16:05:04;3.03;;;0.93;;
67140;SDS011;54058;52.010;5.546;2022-09-01T16:07:30;4.05;;;1.40;;
67140;SDS011;54058;52.010;5.546;2022-09-01T16:09:56;2.07;;;1.07;;
67140;SDS011;54058;52.010;5.546;2022-09-01T16:12:22;6.05;;;1.00;;
67140;SDS011;54058;52.010;5.546;2022-09-01T16:14:50;10.80;;;1.25;;
67140;SDS011;54058;52.010;5.546;2022-09-01T16:17:26;7.85;;;1.02;;
67140;SDS011;54058;52.010;5.546;2022-09-01T16:20:07;6.35;;;1.27;;
67140;SDS011;54058;52.010;5.546;2022-09-01T16:22:40;5.78;;;1.17;;
67140;SDS011;54058;52.010;5.546;2022-09-01T16:25:23;5.05;;;1.20;;
67140;SDS011;54058;52.010;5.546;2022-09-01T16:27:53;5.78;;;1.20;;
67140;SDS011;54058;52.010;5.546;2022-09-01T16:30:21;1.98;;;1.48;;
67140;SDS011;54058;52.010;5.546;2022-09-01T16:32:51;2.80;;;1.25;;
67140;SDS011;54058;52.010;5.546;2022-09-01T16:37:52;5.80;;;0.88;;
67140;SDS011;54058;52.010;5.546;2022-09-01T16:43:25;4.32;;;1.00;;
67140;SDS011;54058;52.010;5.546;2022-09-01T16:48:38;4.38;;;1.10;;